<?xml version="1.0" encoding="UTF-8" standalone="no" ?>
<gpx xmlns="http://www.topografix.com/GPX/1/1" xmlns:xsi="http://www.w3.org/2001/XMLSchema-instance" xsi:schemaLocation="http://www.topografix.com/GPX/1/1 http://www.topografix.com/GPX/1/1/gpx.xsd" version="1.1" creator="VisuGPX - https://www.visugpx.com">
  <metadata>
    <name>BRC Bol d air Dammarie  les Lys</name>
    <desc><![CDATA[Passage par la ferme pédagogique

Pas de difficulté

Effectuée avec Richard le 12 mai 2026]]></desc>
  </metadata>
  <wpt lat="48.51674" lon="2.63355">
    <ele>62</ele>
    <name><![CDATA[Point de passage 1]]></name>
  </wpt>
  <trk>
    <name><![CDATA[BRC Bol d air Dammarie  les Lys]]></name>
    <extensions>
      <line xmlns="http://www.topografix.com/GPX/gpx_style/0/2">
        <color>0000FF</color>
        <width>4</width>
      </line>
    </extensions>
    <trkseg>
      <trkpt lat="48.51674" lon="2.63355">
        <ele>62</ele>
        <time>2026-05-12T12:16:33.000Z</time>
      </trkpt>
      <trkpt lat="48.51669" lon="2.63321">
        <ele>60</ele>
        <time>2026-05-12T12:17:01.000Z</time>
      </trkpt>
      <trkpt lat="48.51691" lon="2.63312">
        <ele>59</ele>
        <time>2026-05-12T12:17:21.000Z</time>
      </trkpt>
      <trkpt lat="48.51711" lon="2.63293">
        <ele>56</ele>
        <time>2026-05-12T12:17:45.000Z</time>
      </trkpt>
      <trkpt lat="48.51721" lon="2.63262">
        <ele>56</ele>
        <time>2026-05-12T12:18:06.000Z</time>
      </trkpt>
      <trkpt lat="48.51733" lon="2.63232">
        <ele>56</ele>
        <time>2026-05-12T12:18:26.000Z</time>
      </trkpt>
      <trkpt lat="48.51747" lon="2.63205">
        <ele>55</ele>
        <time>2026-05-12T12:18:44.000Z</time>
      </trkpt>
      <trkpt lat="48.51769" lon="2.63217">
        <ele>54</ele>
        <time>2026-05-12T12:19:09.000Z</time>
      </trkpt>
      <trkpt lat="48.51783" lon="2.63243">
        <ele>55</ele>
        <time>2026-05-12T12:19:28.000Z</time>
      </trkpt>
      <trkpt lat="48.51805" lon="2.63256">
        <ele>55</ele>
        <time>2026-05-12T12:22:10.000Z</time>
      </trkpt>
      <trkpt lat="48.51828" lon="2.63256">
        <ele>53</ele>
        <time>2026-05-12T12:22:36.000Z</time>
      </trkpt>
      <trkpt lat="48.51852" lon="2.63249">
        <ele>55</ele>
        <time>2026-05-12T12:22:58.000Z</time>
      </trkpt>
      <trkpt lat="48.5187" lon="2.63228">
        <ele>52</ele>
        <time>2026-05-12T12:23:24.000Z</time>
      </trkpt>
      <trkpt lat="48.51877" lon="2.63195">
        <ele>51</ele>
        <time>2026-05-12T12:23:49.000Z</time>
      </trkpt>
      <trkpt lat="48.51878" lon="2.6316">
        <ele>52</ele>
        <time>2026-05-12T12:24:11.000Z</time>
      </trkpt>
      <trkpt lat="48.51861" lon="2.63138">
        <ele>54</ele>
        <time>2026-05-12T12:24:33.000Z</time>
      </trkpt>
      <trkpt lat="48.5184" lon="2.63125">
        <ele>54</ele>
        <time>2026-05-12T12:24:55.000Z</time>
      </trkpt>
      <trkpt lat="48.5182" lon="2.63106">
        <ele>55</ele>
        <time>2026-05-12T12:25:16.000Z</time>
      </trkpt>
      <trkpt lat="48.51796" lon="2.63103">
        <ele>54</ele>
        <time>2026-05-12T12:25:41.000Z</time>
      </trkpt>
      <trkpt lat="48.51774" lon="2.63093">
        <ele>54</ele>
        <time>2026-05-12T12:26:03.000Z</time>
      </trkpt>
      <trkpt lat="48.51753" lon="2.63075">
        <ele>56</ele>
        <time>2026-05-12T12:26:27.000Z</time>
      </trkpt>
      <trkpt lat="48.51732" lon="2.6306">
        <ele>56</ele>
        <time>2026-05-12T12:26:46.000Z</time>
      </trkpt>
      <trkpt lat="48.51712" lon="2.63045">
        <ele>56</ele>
        <time>2026-05-12T12:27:09.000Z</time>
      </trkpt>
      <trkpt lat="48.51699" lon="2.63015">
        <ele>56</ele>
        <time>2026-05-12T12:27:51.000Z</time>
      </trkpt>
      <trkpt lat="48.51682" lon="2.62991">
        <ele>57</ele>
        <time>2026-05-12T12:28:12.000Z</time>
      </trkpt>
      <trkpt lat="48.51659" lon="2.62996">
        <ele>58</ele>
        <time>2026-05-12T12:28:36.000Z</time>
      </trkpt>
      <trkpt lat="48.51636" lon="2.63003">
        <ele>58</ele>
        <time>2026-05-12T12:28:56.000Z</time>
      </trkpt>
      <trkpt lat="48.51613" lon="2.63001">
        <ele>61</ele>
        <time>2026-05-12T12:29:17.000Z</time>
      </trkpt>
      <trkpt lat="48.51592" lon="2.62987">
        <ele>63</ele>
        <time>2026-05-12T12:29:47.000Z</time>
      </trkpt>
      <trkpt lat="48.51577" lon="2.62961">
        <ele>61</ele>
        <time>2026-05-12T12:30:13.000Z</time>
      </trkpt>
      <trkpt lat="48.51583" lon="2.62927">
        <ele>62</ele>
        <time>2026-05-12T12:30:35.000Z</time>
      </trkpt>
      <trkpt lat="48.51592" lon="2.62896">
        <ele>61</ele>
        <time>2026-05-12T12:30:56.000Z</time>
      </trkpt>
      <trkpt lat="48.51604" lon="2.62866">
        <ele>60</ele>
        <time>2026-05-12T12:31:14.000Z</time>
      </trkpt>
      <trkpt lat="48.51616" lon="2.62837">
        <ele>61</ele>
        <time>2026-05-12T12:31:35.000Z</time>
      </trkpt>
      <trkpt lat="48.51617" lon="2.62803">
        <ele>59</ele>
        <time>2026-05-12T12:31:57.000Z</time>
      </trkpt>
      <trkpt lat="48.51611" lon="2.6277">
        <ele>59</ele>
        <time>2026-05-12T12:32:18.000Z</time>
      </trkpt>
      <trkpt lat="48.51613" lon="2.62735">
        <ele>58</ele>
        <time>2026-05-12T12:32:38.000Z</time>
      </trkpt>
      <trkpt lat="48.51611" lon="2.62701">
        <ele>59</ele>
        <time>2026-05-12T12:32:57.000Z</time>
      </trkpt>
      <trkpt lat="48.5161" lon="2.62667">
        <ele>61</ele>
        <time>2026-05-12T12:33:14.000Z</time>
      </trkpt>
      <trkpt lat="48.51592" lon="2.62689">
        <ele>62</ele>
        <time>2026-05-12T12:33:46.000Z</time>
      </trkpt>
      <trkpt lat="48.51577" lon="2.62717">
        <ele>62</ele>
        <time>2026-05-12T12:34:13.000Z</time>
      </trkpt>
      <trkpt lat="48.51568" lon="2.62749">
        <ele>62</ele>
        <time>2026-05-12T12:34:37.000Z</time>
      </trkpt>
      <trkpt lat="48.51545" lon="2.62748">
        <ele>62</ele>
        <time>2026-05-12T12:35:18.000Z</time>
      </trkpt>
      <trkpt lat="48.51538" lon="2.62715">
        <ele>64</ele>
        <time>2026-05-12T12:35:41.000Z</time>
      </trkpt>
      <trkpt lat="48.5152" lon="2.62693">
        <ele>69</ele>
        <time>2026-05-12T12:36:26.000Z</time>
      </trkpt>
      <trkpt lat="48.51497" lon="2.62696">
        <ele>65</ele>
        <time>2026-05-12T12:36:53.000Z</time>
      </trkpt>
      <trkpt lat="48.51495" lon="2.62731">
        <ele>68</ele>
        <time>2026-05-12T12:37:21.000Z</time>
      </trkpt>
      <trkpt lat="48.51498" lon="2.62764">
        <ele>66</ele>
        <time>2026-05-12T12:37:44.000Z</time>
      </trkpt>
      <trkpt lat="48.51502" lon="2.62799">
        <ele>68</ele>
        <time>2026-05-12T12:38:06.000Z</time>
      </trkpt>
      <trkpt lat="48.5148" lon="2.62809">
        <ele>65</ele>
        <time>2026-05-12T12:38:41.000Z</time>
      </trkpt>
      <trkpt lat="48.51458" lon="2.62801">
        <ele>69</ele>
        <time>2026-05-12T12:39:01.000Z</time>
      </trkpt>
      <trkpt lat="48.51435" lon="2.62795">
        <ele>70</ele>
        <time>2026-05-12T12:39:21.000Z</time>
      </trkpt>
      <trkpt lat="48.51413" lon="2.62789">
        <ele>72</ele>
        <time>2026-05-12T12:39:41.000Z</time>
      </trkpt>
      <trkpt lat="48.5139" lon="2.62786">
        <ele>70</ele>
        <time>2026-05-12T12:40:00.000Z</time>
      </trkpt>
      <trkpt lat="48.51385" lon="2.62819">
        <ele>70</ele>
        <time>2026-05-12T12:40:23.000Z</time>
      </trkpt>
      <trkpt lat="48.51379" lon="2.62853">
        <ele>71</ele>
        <time>2026-05-12T12:40:41.000Z</time>
      </trkpt>
      <trkpt lat="48.51357" lon="2.62857">
        <ele>72</ele>
        <time>2026-05-12T12:41:00.000Z</time>
      </trkpt>
      <trkpt lat="48.51334" lon="2.62856">
        <ele>72</ele>
        <time>2026-05-12T12:41:27.000Z</time>
      </trkpt>
      <trkpt lat="48.51329" lon="2.6289">
        <ele>73</ele>
        <time>2026-05-12T12:41:48.000Z</time>
      </trkpt>
      <trkpt lat="48.51322" lon="2.62923">
        <ele>73</ele>
        <time>2026-05-12T12:42:09.000Z</time>
      </trkpt>
      <trkpt lat="48.51316" lon="2.62956">
        <ele>73</ele>
        <time>2026-05-12T12:42:29.000Z</time>
      </trkpt>
      <trkpt lat="48.51314" lon="2.6299">
        <ele>73</ele>
        <time>2026-05-12T12:42:49.000Z</time>
      </trkpt>
      <trkpt lat="48.51307" lon="2.63023">
        <ele>74</ele>
        <time>2026-05-12T12:43:12.000Z</time>
      </trkpt>
      <trkpt lat="48.51299" lon="2.63055">
        <ele>73</ele>
        <time>2026-05-12T12:43:34.000Z</time>
      </trkpt>
      <trkpt lat="48.51295" lon="2.63088">
        <ele>73</ele>
        <time>2026-05-12T12:43:58.000Z</time>
      </trkpt>
      <trkpt lat="48.51273" lon="2.63096">
        <ele>74</ele>
        <time>2026-05-12T12:44:32.000Z</time>
      </trkpt>
      <trkpt lat="48.5125" lon="2.63085">
        <ele>74</ele>
        <time>2026-05-12T12:44:56.000Z</time>
      </trkpt>
      <trkpt lat="48.51229" lon="2.63073">
        <ele>75</ele>
        <time>2026-05-12T12:45:55.000Z</time>
      </trkpt>
      <trkpt lat="48.51207" lon="2.63062">
        <ele>76</ele>
        <time>2026-05-12T12:47:08.000Z</time>
      </trkpt>
      <trkpt lat="48.51185" lon="2.63048">
        <ele>77</ele>
        <time>2026-05-12T12:47:30.000Z</time>
      </trkpt>
      <trkpt lat="48.51164" lon="2.6306">
        <ele>78</ele>
        <time>2026-05-12T12:47:58.000Z</time>
      </trkpt>
      <trkpt lat="48.51143" lon="2.63074">
        <ele>80</ele>
        <time>2026-05-12T12:48:19.000Z</time>
      </trkpt>
      <trkpt lat="48.51123" lon="2.63057">
        <ele>81</ele>
        <time>2026-05-12T12:48:37.000Z</time>
      </trkpt>
      <trkpt lat="48.51105" lon="2.63036">
        <ele>82</ele>
        <time>2026-05-12T12:48:57.000Z</time>
      </trkpt>
      <trkpt lat="48.51084" lon="2.63022">
        <ele>84</ele>
        <time>2026-05-12T12:49:18.000Z</time>
      </trkpt>
      <trkpt lat="48.51062" lon="2.63029">
        <ele>85</ele>
        <time>2026-05-12T12:49:43.000Z</time>
      </trkpt>
      <trkpt lat="48.51047" lon="2.63054">
        <ele>86</ele>
        <time>2026-05-12T12:51:08.000Z</time>
      </trkpt>
      <trkpt lat="48.51058" lon="2.63085">
        <ele>86</ele>
        <time>2026-05-12T12:51:38.000Z</time>
      </trkpt>
      <trkpt lat="48.51079" lon="2.631">
        <ele>85</ele>
        <time>2026-05-12T12:52:03.000Z</time>
      </trkpt>
      <trkpt lat="48.51102" lon="2.63097">
        <ele>83</ele>
        <time>2026-05-12T12:52:24.000Z</time>
      </trkpt>
      <trkpt lat="48.51119" lon="2.6312">
        <ele>81</ele>
        <time>2026-05-12T12:52:47.000Z</time>
      </trkpt>
      <trkpt lat="48.51142" lon="2.63117">
        <ele>79</ele>
        <time>2026-05-12T12:53:13.000Z</time>
      </trkpt>
      <trkpt lat="48.51158" lon="2.63094">
        <ele>78</ele>
        <time>2026-05-12T12:53:38.000Z</time>
      </trkpt>
      <trkpt lat="48.51179" lon="2.63109">
        <ele>78</ele>
        <time>2026-05-12T12:54:05.000Z</time>
      </trkpt>
      <trkpt lat="48.512" lon="2.63123">
        <ele>77</ele>
        <time>2026-05-12T12:54:27.000Z</time>
      </trkpt>
      <trkpt lat="48.51221" lon="2.63135">
        <ele>75</ele>
        <time>2026-05-12T12:54:53.000Z</time>
      </trkpt>
      <trkpt lat="48.51244" lon="2.63136">
        <ele>75</ele>
        <time>2026-05-12T12:55:16.000Z</time>
      </trkpt>
      <trkpt lat="48.51267" lon="2.63139">
        <ele>74</ele>
        <time>2026-05-12T12:55:40.000Z</time>
      </trkpt>
      <trkpt lat="48.5129" lon="2.63134">
        <ele>73</ele>
        <time>2026-05-12T12:56:02.000Z</time>
      </trkpt>
      <trkpt lat="48.51309" lon="2.63155">
        <ele>72</ele>
        <time>2026-05-12T12:56:28.000Z</time>
      </trkpt>
      <trkpt lat="48.51332" lon="2.63164">
        <ele>72</ele>
        <time>2026-05-12T12:56:47.000Z</time>
      </trkpt>
      <trkpt lat="48.51353" lon="2.63179">
        <ele>71</ele>
        <time>2026-05-12T12:57:11.000Z</time>
      </trkpt>
      <trkpt lat="48.51351" lon="2.63213">
        <ele>72</ele>
        <time>2026-05-12T12:57:31.000Z</time>
      </trkpt>
      <trkpt lat="48.51345" lon="2.63247">
        <ele>71</ele>
        <time>2026-05-12T12:57:52.000Z</time>
      </trkpt>
      <trkpt lat="48.51335" lon="2.63279">
        <ele>71</ele>
        <time>2026-05-12T12:58:15.000Z</time>
      </trkpt>
      <trkpt lat="48.5134" lon="2.63313">
        <ele>70</ele>
        <time>2026-05-12T13:04:43.000Z</time>
      </trkpt>
      <trkpt lat="48.51329" lon="2.63345">
        <ele>71</ele>
        <time>2026-05-12T13:05:10.000Z</time>
      </trkpt>
      <trkpt lat="48.51308" lon="2.63328">
        <ele>72</ele>
        <time>2026-05-12T13:05:38.000Z</time>
      </trkpt>
      <trkpt lat="48.51285" lon="2.63324">
        <ele>72</ele>
        <time>2026-05-12T13:06:01.000Z</time>
      </trkpt>
      <trkpt lat="48.51263" lon="2.63315">
        <ele>73</ele>
        <time>2026-05-12T13:06:21.000Z</time>
      </trkpt>
      <trkpt lat="48.51251" lon="2.63345">
        <ele>74</ele>
        <time>2026-05-12T13:07:07.000Z</time>
      </trkpt>
      <trkpt lat="48.51235" lon="2.63369">
        <ele>74</ele>
        <time>2026-05-12T13:07:31.000Z</time>
      </trkpt>
      <trkpt lat="48.51217" lon="2.63393">
        <ele>73</ele>
        <time>2026-05-12T13:07:52.000Z</time>
      </trkpt>
      <trkpt lat="48.51203" lon="2.6342">
        <ele>74</ele>
        <time>2026-05-12T13:08:14.000Z</time>
      </trkpt>
      <trkpt lat="48.5119" lon="2.6345">
        <ele>74</ele>
        <time>2026-05-12T13:08:36.000Z</time>
      </trkpt>
      <trkpt lat="48.51179" lon="2.63481">
        <ele>75</ele>
        <time>2026-05-12T13:08:58.000Z</time>
      </trkpt>
      <trkpt lat="48.51169" lon="2.63512">
        <ele>76</ele>
        <time>2026-05-12T13:09:19.000Z</time>
      </trkpt>
      <trkpt lat="48.51154" lon="2.63539">
        <ele>77</ele>
        <time>2026-05-12T13:09:40.000Z</time>
      </trkpt>
      <trkpt lat="48.51139" lon="2.63565">
        <ele>78</ele>
        <time>2026-05-12T13:10:01.000Z</time>
      </trkpt>
      <trkpt lat="48.51128" lon="2.63596">
        <ele>78</ele>
        <time>2026-05-12T13:10:23.000Z</time>
      </trkpt>
      <trkpt lat="48.51117" lon="2.63627">
        <ele>79</ele>
        <time>2026-05-12T13:10:45.000Z</time>
      </trkpt>
      <trkpt lat="48.51103" lon="2.63654">
        <ele>80</ele>
        <time>2026-05-12T13:11:06.000Z</time>
      </trkpt>
      <trkpt lat="48.51095" lon="2.63686">
        <ele>81</ele>
        <time>2026-05-12T13:11:49.000Z</time>
      </trkpt>
      <trkpt lat="48.51084" lon="2.63718">
        <ele>81</ele>
        <time>2026-05-12T13:12:13.000Z</time>
      </trkpt>
      <trkpt lat="48.5107" lon="2.63746">
        <ele>82</ele>
        <time>2026-05-12T13:12:35.000Z</time>
      </trkpt>
      <trkpt lat="48.5105" lon="2.63761">
        <ele>82</ele>
        <time>2026-05-12T13:13:01.000Z</time>
      </trkpt>
      <trkpt lat="48.51028" lon="2.63771">
        <ele>84</ele>
        <time>2026-05-12T13:13:27.000Z</time>
      </trkpt>
      <trkpt lat="48.51005" lon="2.63763">
        <ele>84</ele>
        <time>2026-05-12T13:13:52.000Z</time>
      </trkpt>
      <trkpt lat="48.50981" lon="2.63762">
        <ele>84</ele>
        <time>2026-05-12T13:14:21.000Z</time>
      </trkpt>
      <trkpt lat="48.50958" lon="2.63758">
        <ele>84</ele>
        <time>2026-05-12T13:14:40.000Z</time>
      </trkpt>
      <trkpt lat="48.50937" lon="2.63742">
        <ele>86</ele>
        <time>2026-05-12T13:15:00.000Z</time>
      </trkpt>
      <trkpt lat="48.50915" lon="2.63733">
        <ele>86</ele>
        <time>2026-05-12T13:15:22.000Z</time>
      </trkpt>
      <trkpt lat="48.50892" lon="2.63726">
        <ele>85</ele>
        <time>2026-05-12T13:15:46.000Z</time>
      </trkpt>
      <trkpt lat="48.50869" lon="2.6372">
        <ele>85</ele>
        <time>2026-05-12T13:16:11.000Z</time>
      </trkpt>
      <trkpt lat="48.50869" lon="2.63686">
        <ele>86</ele>
        <time>2026-05-12T13:16:33.000Z</time>
      </trkpt>
      <trkpt lat="48.50853" lon="2.63661">
        <ele>85</ele>
        <time>2026-05-12T13:16:59.000Z</time>
      </trkpt>
      <trkpt lat="48.50839" lon="2.63691">
        <ele>86</ele>
        <time>2026-05-12T13:17:20.000Z</time>
      </trkpt>
      <trkpt lat="48.50823" lon="2.63716">
        <ele>85</ele>
        <time>2026-05-12T13:17:44.000Z</time>
      </trkpt>
      <trkpt lat="48.50804" lon="2.63738">
        <ele>85</ele>
        <time>2026-05-12T13:18:07.000Z</time>
      </trkpt>
      <trkpt lat="48.50789" lon="2.63765">
        <ele>86</ele>
        <time>2026-05-12T13:18:26.000Z</time>
      </trkpt>
      <trkpt lat="48.50773" lon="2.63794">
        <ele>85</ele>
        <time>2026-05-12T13:18:46.000Z</time>
      </trkpt>
      <trkpt lat="48.50755" lon="2.63816">
        <ele>86</ele>
        <time>2026-05-12T13:19:09.000Z</time>
      </trkpt>
      <trkpt lat="48.50736" lon="2.63836">
        <ele>86</ele>
        <time>2026-05-12T13:19:31.000Z</time>
      </trkpt>
      <trkpt lat="48.5072" lon="2.63862">
        <ele>87</ele>
        <time>2026-05-12T13:20:11.000Z</time>
      </trkpt>
      <trkpt lat="48.50712" lon="2.63893">
        <ele>87</ele>
        <time>2026-05-12T13:20:55.000Z</time>
      </trkpt>
      <trkpt lat="48.50694" lon="2.63917">
        <ele>86</ele>
        <time>2026-05-12T13:21:48.000Z</time>
      </trkpt>
      <trkpt lat="48.50678" lon="2.63942">
        <ele>87</ele>
        <time>2026-05-12T13:22:13.000Z</time>
      </trkpt>
      <trkpt lat="48.50664" lon="2.63972">
        <ele>88</ele>
        <time>2026-05-12T13:22:36.000Z</time>
      </trkpt>
      <trkpt lat="48.50649" lon="2.63998">
        <ele>88</ele>
        <time>2026-05-12T13:23:01.000Z</time>
      </trkpt>
      <trkpt lat="48.50634" lon="2.64024">
        <ele>88</ele>
        <time>2026-05-12T13:23:23.000Z</time>
      </trkpt>
      <trkpt lat="48.50623" lon="2.64054">
        <ele>89</ele>
        <time>2026-05-12T13:23:45.000Z</time>
      </trkpt>
      <trkpt lat="48.50612" lon="2.64084">
        <ele>88</ele>
        <time>2026-05-12T13:24:07.000Z</time>
      </trkpt>
      <trkpt lat="48.50602" lon="2.64116">
        <ele>89</ele>
        <time>2026-05-12T13:24:26.000Z</time>
      </trkpt>
      <trkpt lat="48.50592" lon="2.64147">
        <ele>88</ele>
        <time>2026-05-12T13:24:47.000Z</time>
      </trkpt>
      <trkpt lat="48.50569" lon="2.64153">
        <ele>89</ele>
        <time>2026-05-12T13:25:16.000Z</time>
      </trkpt>
      <trkpt lat="48.50546" lon="2.64146">
        <ele>90</ele>
        <time>2026-05-12T13:25:36.000Z</time>
      </trkpt>
      <trkpt lat="48.50525" lon="2.64131">
        <ele>90</ele>
        <time>2026-05-12T13:25:56.000Z</time>
      </trkpt>
      <trkpt lat="48.50503" lon="2.64119">
        <ele>90</ele>
        <time>2026-05-12T13:26:19.000Z</time>
      </trkpt>
      <trkpt lat="48.50481" lon="2.64109">
        <ele>90</ele>
        <time>2026-05-12T13:26:41.000Z</time>
      </trkpt>
      <trkpt lat="48.50459" lon="2.64098">
        <ele>91</ele>
        <time>2026-05-12T13:27:05.000Z</time>
      </trkpt>
      <trkpt lat="48.50437" lon="2.64091">
        <ele>91</ele>
        <time>2026-05-12T13:27:28.000Z</time>
      </trkpt>
      <trkpt lat="48.50415" lon="2.6408">
        <ele>93</ele>
        <time>2026-05-12T13:27:53.000Z</time>
      </trkpt>
      <trkpt lat="48.50391" lon="2.6407">
        <ele>92</ele>
        <time>2026-05-12T13:28:14.000Z</time>
      </trkpt>
      <trkpt lat="48.5037" lon="2.64056">
        <ele>93</ele>
        <time>2026-05-12T13:28:45.000Z</time>
      </trkpt>
      <trkpt lat="48.50348" lon="2.64046">
        <ele>93</ele>
        <time>2026-05-12T13:29:09.000Z</time>
      </trkpt>
      <trkpt lat="48.50328" lon="2.64028">
        <ele>93</ele>
        <time>2026-05-12T13:29:35.000Z</time>
      </trkpt>
      <trkpt lat="48.50334" lon="2.63994">
        <ele>93</ele>
        <time>2026-05-12T13:29:53.000Z</time>
      </trkpt>
      <trkpt lat="48.50347" lon="2.63966">
        <ele>93</ele>
        <time>2026-05-12T13:30:13.000Z</time>
      </trkpt>
      <trkpt lat="48.50353" lon="2.63932">
        <ele>93</ele>
        <time>2026-05-12T13:30:36.000Z</time>
      </trkpt>
      <trkpt lat="48.5036" lon="2.639">
        <ele>92</ele>
        <time>2026-05-12T13:30:57.000Z</time>
      </trkpt>
      <trkpt lat="48.50369" lon="2.63867">
        <ele>92</ele>
        <time>2026-05-12T13:31:17.000Z</time>
      </trkpt>
      <trkpt lat="48.50377" lon="2.63835">
        <ele>92</ele>
        <time>2026-05-12T13:31:40.000Z</time>
      </trkpt>
      <trkpt lat="48.50374" lon="2.63801">
        <ele>92</ele>
        <time>2026-05-12T13:32:02.000Z</time>
      </trkpt>
      <trkpt lat="48.50352" lon="2.63797">
        <ele>93</ele>
        <time>2026-05-12T13:32:28.000Z</time>
      </trkpt>
      <trkpt lat="48.5033" lon="2.63805">
        <ele>93</ele>
        <time>2026-05-12T13:32:48.000Z</time>
      </trkpt>
      <trkpt lat="48.50308" lon="2.63815">
        <ele>93</ele>
        <time>2026-05-12T13:33:09.000Z</time>
      </trkpt>
      <trkpt lat="48.50285" lon="2.63824">
        <ele>93</ele>
        <time>2026-05-12T13:33:31.000Z</time>
      </trkpt>
      <trkpt lat="48.50264" lon="2.63833">
        <ele>94</ele>
        <time>2026-05-12T13:33:53.000Z</time>
      </trkpt>
      <trkpt lat="48.50242" lon="2.63844">
        <ele>93</ele>
        <time>2026-05-12T13:34:13.000Z</time>
      </trkpt>
      <trkpt lat="48.5022" lon="2.63852">
        <ele>94</ele>
        <time>2026-05-12T13:34:33.000Z</time>
      </trkpt>
      <trkpt lat="48.50197" lon="2.63859">
        <ele>94</ele>
        <time>2026-05-12T13:34:54.000Z</time>
      </trkpt>
      <trkpt lat="48.50175" lon="2.63869">
        <ele>94</ele>
        <time>2026-05-12T13:35:15.000Z</time>
      </trkpt>
      <trkpt lat="48.50152" lon="2.63877">
        <ele>94</ele>
        <time>2026-05-12T13:35:37.000Z</time>
      </trkpt>
      <trkpt lat="48.50129" lon="2.63885">
        <ele>94</ele>
        <time>2026-05-12T13:35:59.000Z</time>
      </trkpt>
      <trkpt lat="48.50107" lon="2.63896">
        <ele>93</ele>
        <time>2026-05-12T13:36:22.000Z</time>
      </trkpt>
      <trkpt lat="48.50085" lon="2.63905">
        <ele>94</ele>
        <time>2026-05-12T13:37:22.000Z</time>
      </trkpt>
      <trkpt lat="48.50064" lon="2.63916">
        <ele>94</ele>
        <time>2026-05-12T13:37:53.000Z</time>
      </trkpt>
      <trkpt lat="48.50041" lon="2.63921">
        <ele>94</ele>
        <time>2026-05-12T13:38:16.000Z</time>
      </trkpt>
      <trkpt lat="48.50019" lon="2.63929">
        <ele>94</ele>
        <time>2026-05-12T13:38:36.000Z</time>
      </trkpt>
      <trkpt lat="48.49997" lon="2.6394">
        <ele>93</ele>
        <time>2026-05-12T13:39:04.000Z</time>
      </trkpt>
      <trkpt lat="48.49975" lon="2.63948">
        <ele>93</ele>
        <time>2026-05-12T13:39:26.000Z</time>
      </trkpt>
      <trkpt lat="48.49953" lon="2.63953">
        <ele>93</ele>
        <time>2026-05-12T13:39:49.000Z</time>
      </trkpt>
      <trkpt lat="48.4993" lon="2.63963">
        <ele>94</ele>
        <time>2026-05-12T13:40:10.000Z</time>
      </trkpt>
      <trkpt lat="48.49908" lon="2.63972">
        <ele>93</ele>
        <time>2026-05-12T13:40:34.000Z</time>
      </trkpt>
      <trkpt lat="48.49885" lon="2.63981">
        <ele>93</ele>
        <time>2026-05-12T13:40:56.000Z</time>
      </trkpt>
      <trkpt lat="48.49863" lon="2.6399">
        <ele>94</ele>
        <time>2026-05-12T13:41:16.000Z</time>
      </trkpt>
      <trkpt lat="48.49841" lon="2.63999">
        <ele>93</ele>
        <time>2026-05-12T13:41:37.000Z</time>
      </trkpt>
      <trkpt lat="48.49818" lon="2.64009">
        <ele>94</ele>
        <time>2026-05-12T13:41:57.000Z</time>
      </trkpt>
      <trkpt lat="48.49796" lon="2.64017">
        <ele>96</ele>
        <time>2026-05-12T13:42:20.000Z</time>
      </trkpt>
      <trkpt lat="48.49803" lon="2.64052">
        <ele>95</ele>
        <time>2026-05-12T13:42:36.000Z</time>
      </trkpt>
      <trkpt lat="48.49808" lon="2.64085">
        <ele>95</ele>
        <time>2026-05-12T13:42:59.000Z</time>
      </trkpt>
      <trkpt lat="48.49814" lon="2.6412">
        <ele>96</ele>
        <time>2026-05-12T13:43:17.000Z</time>
      </trkpt>
      <trkpt lat="48.4982" lon="2.64153">
        <ele>94</ele>
        <time>2026-05-12T13:43:38.000Z</time>
      </trkpt>
      <trkpt lat="48.49826" lon="2.64187">
        <ele>94</ele>
        <time>2026-05-12T13:43:59.000Z</time>
      </trkpt>
      <trkpt lat="48.49834" lon="2.64221">
        <ele>95</ele>
        <time>2026-05-12T13:44:21.000Z</time>
      </trkpt>
      <trkpt lat="48.49841" lon="2.64256">
        <ele>97</ele>
        <time>2026-05-12T13:44:40.000Z</time>
      </trkpt>
      <trkpt lat="48.49847" lon="2.64289">
        <ele>97</ele>
        <time>2026-05-12T13:45:00.000Z</time>
      </trkpt>
      <trkpt lat="48.49855" lon="2.64321">
        <ele>98</ele>
        <time>2026-05-12T13:45:21.000Z</time>
      </trkpt>
      <trkpt lat="48.49859" lon="2.64355">
        <ele>98</ele>
        <time>2026-05-12T13:45:41.000Z</time>
      </trkpt>
      <trkpt lat="48.49868" lon="2.64386">
        <ele>96</ele>
        <time>2026-05-12T13:46:01.000Z</time>
      </trkpt>
      <trkpt lat="48.49874" lon="2.64419">
        <ele>97</ele>
        <time>2026-05-12T13:46:21.000Z</time>
      </trkpt>
      <trkpt lat="48.49883" lon="2.6445">
        <ele>95</ele>
        <time>2026-05-12T13:46:46.000Z</time>
      </trkpt>
      <trkpt lat="48.49886" lon="2.64484">
        <ele>94</ele>
        <time>2026-05-12T13:47:07.000Z</time>
      </trkpt>
      <trkpt lat="48.49896" lon="2.64515">
        <ele>95</ele>
        <time>2026-05-12T13:47:27.000Z</time>
      </trkpt>
      <trkpt lat="48.49902" lon="2.64548">
        <ele>97</ele>
        <time>2026-05-12T13:47:46.000Z</time>
      </trkpt>
      <trkpt lat="48.49906" lon="2.64582">
        <ele>96</ele>
        <time>2026-05-12T13:48:09.000Z</time>
      </trkpt>
      <trkpt lat="48.49884" lon="2.64585">
        <ele>97</ele>
        <time>2026-05-12T13:48:30.000Z</time>
      </trkpt>
      <trkpt lat="48.49861" lon="2.64585">
        <ele>99</ele>
        <time>2026-05-12T13:48:47.000Z</time>
      </trkpt>
      <trkpt lat="48.49838" lon="2.64585">
        <ele>99</ele>
        <time>2026-05-12T13:49:09.000Z</time>
      </trkpt>
      <trkpt lat="48.49815" lon="2.64586">
        <ele>101</ele>
        <time>2026-05-12T13:49:29.000Z</time>
      </trkpt>
      <trkpt lat="48.49791" lon="2.64588">
        <ele>101</ele>
        <time>2026-05-12T13:49:52.000Z</time>
      </trkpt>
      <trkpt lat="48.49769" lon="2.64589">
        <ele>100</ele>
        <time>2026-05-12T13:50:13.000Z</time>
      </trkpt>
      <trkpt lat="48.49745" lon="2.6459">
        <ele>100</ele>
        <time>2026-05-12T13:50:37.000Z</time>
      </trkpt>
      <trkpt lat="48.49722" lon="2.64592">
        <ele>98</ele>
        <time>2026-05-12T13:51:01.000Z</time>
      </trkpt>
      <trkpt lat="48.49699" lon="2.64593">
        <ele>97</ele>
        <time>2026-05-12T13:51:29.000Z</time>
      </trkpt>
      <trkpt lat="48.49676" lon="2.64596">
        <ele>96</ele>
        <time>2026-05-12T13:51:51.000Z</time>
      </trkpt>
      <trkpt lat="48.49653" lon="2.64598">
        <ele>97</ele>
        <time>2026-05-12T13:52:12.000Z</time>
      </trkpt>
      <trkpt lat="48.49631" lon="2.646">
        <ele>98</ele>
        <time>2026-05-12T13:52:33.000Z</time>
      </trkpt>
      <trkpt lat="48.49607" lon="2.64603">
        <ele>101</ele>
        <time>2026-05-12T13:52:54.000Z</time>
      </trkpt>
      <trkpt lat="48.49584" lon="2.64605">
        <ele>100</ele>
        <time>2026-05-12T13:53:16.000Z</time>
      </trkpt>
      <trkpt lat="48.4956" lon="2.64608">
        <ele>100</ele>
        <time>2026-05-12T13:53:37.000Z</time>
      </trkpt>
      <trkpt lat="48.49537" lon="2.6461">
        <ele>96</ele>
        <time>2026-05-12T13:54:51.000Z</time>
      </trkpt>
      <trkpt lat="48.49549" lon="2.6464">
        <ele>97</ele>
        <time>2026-05-12T13:55:41.000Z</time>
      </trkpt>
      <trkpt lat="48.49569" lon="2.64657">
        <ele>94</ele>
        <time>2026-05-12T13:56:20.000Z</time>
      </trkpt>
      <trkpt lat="48.49581" lon="2.64687">
        <ele>94</ele>
        <time>2026-05-12T13:56:57.000Z</time>
      </trkpt>
      <trkpt lat="48.49593" lon="2.64717">
        <ele>96</ele>
        <time>2026-05-12T13:57:26.000Z</time>
      </trkpt>
      <trkpt lat="48.49608" lon="2.64743">
        <ele>97</ele>
        <time>2026-05-12T13:57:55.000Z</time>
      </trkpt>
      <trkpt lat="48.49622" lon="2.64771">
        <ele>96</ele>
        <time>2026-05-12T13:58:27.000Z</time>
      </trkpt>
      <trkpt lat="48.49637" lon="2.64796">
        <ele>94</ele>
        <time>2026-05-12T13:58:59.000Z</time>
      </trkpt>
      <trkpt lat="48.49649" lon="2.64826">
        <ele>97</ele>
        <time>2026-05-12T13:59:46.000Z</time>
      </trkpt>
      <trkpt lat="48.49668" lon="2.64845">
        <ele>96</ele>
        <time>2026-05-12T14:00:15.000Z</time>
      </trkpt>
      <trkpt lat="48.49677" lon="2.64877">
        <ele>95</ele>
        <time>2026-05-12T14:02:19.000Z</time>
      </trkpt>
      <trkpt lat="48.49692" lon="2.64904">
        <ele>95</ele>
        <time>2026-05-12T14:03:21.000Z</time>
      </trkpt>
      <trkpt lat="48.49709" lon="2.64929">
        <ele>97</ele>
        <time>2026-05-12T14:03:53.000Z</time>
      </trkpt>
      <trkpt lat="48.49724" lon="2.64957">
        <ele>98</ele>
        <time>2026-05-12T14:05:42.000Z</time>
      </trkpt>
      <trkpt lat="48.49736" lon="2.64987">
        <ele>95</ele>
        <time>2026-05-12T14:07:30.000Z</time>
      </trkpt>
      <trkpt lat="48.49751" lon="2.65013">
        <ele>97</ele>
        <time>2026-05-12T14:08:30.000Z</time>
      </trkpt>
      <trkpt lat="48.49765" lon="2.65041">
        <ele>96</ele>
        <time>2026-05-12T14:09:00.000Z</time>
      </trkpt>
      <trkpt lat="48.49777" lon="2.65069">
        <ele>96</ele>
        <time>2026-05-12T14:09:29.000Z</time>
      </trkpt>
      <trkpt lat="48.49778" lon="2.65105">
        <ele>96</ele>
        <time>2026-05-12T14:10:41.000Z</time>
      </trkpt>
      <trkpt lat="48.49768" lon="2.65135">
        <ele>97</ele>
        <time>2026-05-12T14:11:00.000Z</time>
      </trkpt>
      <trkpt lat="48.49763" lon="2.65169">
        <ele>97</ele>
        <time>2026-05-12T14:11:27.000Z</time>
      </trkpt>
      <trkpt lat="48.49755" lon="2.65201">
        <ele>97</ele>
        <time>2026-05-12T14:11:54.000Z</time>
      </trkpt>
      <trkpt lat="48.49745" lon="2.65232">
        <ele>98</ele>
        <time>2026-05-12T14:12:19.000Z</time>
      </trkpt>
      <trkpt lat="48.49737" lon="2.65265">
        <ele>97</ele>
        <time>2026-05-12T14:12:42.000Z</time>
      </trkpt>
      <trkpt lat="48.4973" lon="2.65299">
        <ele>99</ele>
        <time>2026-05-12T14:13:07.000Z</time>
      </trkpt>
      <trkpt lat="48.49722" lon="2.65331">
        <ele>97</ele>
        <time>2026-05-12T14:13:30.000Z</time>
      </trkpt>
      <trkpt lat="48.49712" lon="2.65362">
        <ele>97</ele>
        <time>2026-05-12T14:13:53.000Z</time>
      </trkpt>
      <trkpt lat="48.49702" lon="2.65393">
        <ele>98</ele>
        <time>2026-05-12T14:14:14.000Z</time>
      </trkpt>
      <trkpt lat="48.49693" lon="2.65426">
        <ele>97</ele>
        <time>2026-05-12T14:14:35.000Z</time>
      </trkpt>
      <trkpt lat="48.49686" lon="2.65458">
        <ele>99</ele>
        <time>2026-05-12T14:14:56.000Z</time>
      </trkpt>
      <trkpt lat="48.49708" lon="2.65467">
        <ele>96</ele>
        <time>2026-05-12T14:15:21.000Z</time>
      </trkpt>
      <trkpt lat="48.49731" lon="2.65467">
        <ele>97</ele>
        <time>2026-05-12T14:15:40.000Z</time>
      </trkpt>
      <trkpt lat="48.49754" lon="2.65468">
        <ele>97</ele>
        <time>2026-05-12T14:16:01.000Z</time>
      </trkpt>
      <trkpt lat="48.49777" lon="2.6547">
        <ele>95</ele>
        <time>2026-05-12T14:16:22.000Z</time>
      </trkpt>
      <trkpt lat="48.498" lon="2.65475">
        <ele>96</ele>
        <time>2026-05-12T14:16:42.000Z</time>
      </trkpt>
      <trkpt lat="48.49824" lon="2.65473">
        <ele>95</ele>
        <time>2026-05-12T14:17:02.000Z</time>
      </trkpt>
      <trkpt lat="48.49847" lon="2.65475">
        <ele>95</ele>
        <time>2026-05-12T14:17:24.000Z</time>
      </trkpt>
      <trkpt lat="48.49869" lon="2.65474">
        <ele>94</ele>
        <time>2026-05-12T14:17:45.000Z</time>
      </trkpt>
      <trkpt lat="48.49892" lon="2.65477">
        <ele>96</ele>
        <time>2026-05-12T14:18:03.000Z</time>
      </trkpt>
      <trkpt lat="48.49915" lon="2.65479">
        <ele>96</ele>
        <time>2026-05-12T14:18:24.000Z</time>
      </trkpt>
      <trkpt lat="48.49938" lon="2.6548">
        <ele>94</ele>
        <time>2026-05-12T14:18:51.000Z</time>
      </trkpt>
      <trkpt lat="48.49961" lon="2.6548">
        <ele>95</ele>
        <time>2026-05-12T14:19:09.000Z</time>
      </trkpt>
      <trkpt lat="48.49983" lon="2.65483">
        <ele>95</ele>
        <time>2026-05-12T14:19:33.000Z</time>
      </trkpt>
      <trkpt lat="48.50006" lon="2.65481">
        <ele>94</ele>
        <time>2026-05-12T14:19:56.000Z</time>
      </trkpt>
      <trkpt lat="48.50029" lon="2.65484">
        <ele>93</ele>
        <time>2026-05-12T14:20:16.000Z</time>
      </trkpt>
      <trkpt lat="48.50052" lon="2.65484">
        <ele>93</ele>
        <time>2026-05-12T14:20:42.000Z</time>
      </trkpt>
      <trkpt lat="48.50074" lon="2.65489">
        <ele>93</ele>
        <time>2026-05-12T14:21:02.000Z</time>
      </trkpt>
      <trkpt lat="48.50097" lon="2.65495">
        <ele>94</ele>
        <time>2026-05-12T14:30:05.000Z</time>
      </trkpt>
      <trkpt lat="48.50119" lon="2.65487">
        <ele>99</ele>
        <time>2026-05-12T14:33:19.000Z</time>
      </trkpt>
      <trkpt lat="48.50142" lon="2.65481">
        <ele>96</ele>
        <time>2026-05-12T14:33:43.000Z</time>
      </trkpt>
      <trkpt lat="48.50165" lon="2.65476">
        <ele>94</ele>
        <time>2026-05-12T14:34:04.000Z</time>
      </trkpt>
      <trkpt lat="48.50188" lon="2.65474">
        <ele>94</ele>
        <time>2026-05-12T14:34:22.000Z</time>
      </trkpt>
      <trkpt lat="48.50211" lon="2.65467">
        <ele>94</ele>
        <time>2026-05-12T14:34:42.000Z</time>
      </trkpt>
      <trkpt lat="48.50233" lon="2.65462">
        <ele>94</ele>
        <time>2026-05-12T14:35:00.000Z</time>
      </trkpt>
      <trkpt lat="48.50256" lon="2.65456">
        <ele>94</ele>
        <time>2026-05-12T14:35:23.000Z</time>
      </trkpt>
      <trkpt lat="48.50278" lon="2.65452">
        <ele>94</ele>
        <time>2026-05-12T14:35:44.000Z</time>
      </trkpt>
      <trkpt lat="48.503" lon="2.65445">
        <ele>93</ele>
        <time>2026-05-12T14:36:04.000Z</time>
      </trkpt>
      <trkpt lat="48.50324" lon="2.65443">
        <ele>93</ele>
        <time>2026-05-12T14:36:27.000Z</time>
      </trkpt>
      <trkpt lat="48.50346" lon="2.65435">
        <ele>93</ele>
        <time>2026-05-12T14:36:45.000Z</time>
      </trkpt>
      <trkpt lat="48.50343" lon="2.65401">
        <ele>94</ele>
        <time>2026-05-12T14:37:14.000Z</time>
      </trkpt>
      <trkpt lat="48.50346" lon="2.65367">
        <ele>94</ele>
        <time>2026-05-12T14:37:38.000Z</time>
      </trkpt>
      <trkpt lat="48.5034" lon="2.65332">
        <ele>94</ele>
        <time>2026-05-12T14:38:06.000Z</time>
      </trkpt>
      <trkpt lat="48.50334" lon="2.65298">
        <ele>94</ele>
        <time>2026-05-12T14:38:36.000Z</time>
      </trkpt>
      <trkpt lat="48.50335" lon="2.65264">
        <ele>94</ele>
        <time>2026-05-12T14:39:02.000Z</time>
      </trkpt>
      <trkpt lat="48.50334" lon="2.65229">
        <ele>94</ele>
        <time>2026-05-12T14:39:30.000Z</time>
      </trkpt>
      <trkpt lat="48.50328" lon="2.65195">
        <ele>94</ele>
        <time>2026-05-12T14:39:54.000Z</time>
      </trkpt>
      <trkpt lat="48.5033" lon="2.6516">
        <ele>93</ele>
        <time>2026-05-12T14:40:18.000Z</time>
      </trkpt>
      <trkpt lat="48.50323" lon="2.65127">
        <ele>94</ele>
        <time>2026-05-12T14:40:37.000Z</time>
      </trkpt>
      <trkpt lat="48.50315" lon="2.65095">
        <ele>94</ele>
        <time>2026-05-12T14:40:53.000Z</time>
      </trkpt>
      <trkpt lat="48.50313" lon="2.65059">
        <ele>93</ele>
        <time>2026-05-12T14:41:16.000Z</time>
      </trkpt>
      <trkpt lat="48.50308" lon="2.65025">
        <ele>93</ele>
        <time>2026-05-12T14:41:38.000Z</time>
      </trkpt>
      <trkpt lat="48.50306" lon="2.64991">
        <ele>94</ele>
        <time>2026-05-12T14:41:57.000Z</time>
      </trkpt>
      <trkpt lat="48.50295" lon="2.6496">
        <ele>93</ele>
        <time>2026-05-12T14:42:14.000Z</time>
      </trkpt>
      <trkpt lat="48.50303" lon="2.64928">
        <ele>93</ele>
        <time>2026-05-12T14:42:35.000Z</time>
      </trkpt>
      <trkpt lat="48.50315" lon="2.64898">
        <ele>93</ele>
        <time>2026-05-12T14:42:53.000Z</time>
      </trkpt>
      <trkpt lat="48.50327" lon="2.64867">
        <ele>92</ele>
        <time>2026-05-12T14:43:14.000Z</time>
      </trkpt>
      <trkpt lat="48.50336" lon="2.64835">
        <ele>91</ele>
        <time>2026-05-12T14:43:37.000Z</time>
      </trkpt>
      <trkpt lat="48.5035" lon="2.64806">
        <ele>89</ele>
        <time>2026-05-12T14:43:58.000Z</time>
      </trkpt>
      <trkpt lat="48.5036" lon="2.64774">
        <ele>90</ele>
        <time>2026-05-12T14:44:20.000Z</time>
      </trkpt>
      <trkpt lat="48.50379" lon="2.64792">
        <ele>91</ele>
        <time>2026-05-12T14:44:43.000Z</time>
      </trkpt>
      <trkpt lat="48.504" lon="2.64805">
        <ele>91</ele>
        <time>2026-05-12T14:45:06.000Z</time>
      </trkpt>
      <trkpt lat="48.50422" lon="2.64816">
        <ele>90</ele>
        <time>2026-05-12T14:45:29.000Z</time>
      </trkpt>
      <trkpt lat="48.50442" lon="2.64829">
        <ele>91</ele>
        <time>2026-05-12T14:45:56.000Z</time>
      </trkpt>
      <trkpt lat="48.50464" lon="2.64842">
        <ele>89</ele>
        <time>2026-05-12T14:46:15.000Z</time>
      </trkpt>
      <trkpt lat="48.50483" lon="2.64861">
        <ele>87</ele>
        <time>2026-05-12T14:46:35.000Z</time>
      </trkpt>
      <trkpt lat="48.50503" lon="2.64876">
        <ele>88</ele>
        <time>2026-05-12T14:46:54.000Z</time>
      </trkpt>
      <trkpt lat="48.50526" lon="2.64885">
        <ele>90</ele>
        <time>2026-05-12T14:47:17.000Z</time>
      </trkpt>
      <trkpt lat="48.50549" lon="2.649">
        <ele>88</ele>
        <time>2026-05-12T14:47:40.000Z</time>
      </trkpt>
      <trkpt lat="48.50571" lon="2.64914">
        <ele>86</ele>
        <time>2026-05-12T14:48:02.000Z</time>
      </trkpt>
      <trkpt lat="48.50593" lon="2.6492">
        <ele>86</ele>
        <time>2026-05-12T14:48:26.000Z</time>
      </trkpt>
      <trkpt lat="48.50616" lon="2.64927">
        <ele>85</ele>
        <time>2026-05-12T14:48:45.000Z</time>
      </trkpt>
      <trkpt lat="48.50639" lon="2.64931">
        <ele>86</ele>
        <time>2026-05-12T14:49:07.000Z</time>
      </trkpt>
      <trkpt lat="48.50661" lon="2.64934">
        <ele>86</ele>
        <time>2026-05-12T14:49:30.000Z</time>
      </trkpt>
      <trkpt lat="48.50684" lon="2.64941">
        <ele>85</ele>
        <time>2026-05-12T14:49:52.000Z</time>
      </trkpt>
      <trkpt lat="48.50708" lon="2.64937">
        <ele>85</ele>
        <time>2026-05-12T14:50:12.000Z</time>
      </trkpt>
      <trkpt lat="48.5073" lon="2.64943">
        <ele>86</ele>
        <time>2026-05-12T14:50:35.000Z</time>
      </trkpt>
      <trkpt lat="48.50753" lon="2.64945">
        <ele>85</ele>
        <time>2026-05-12T14:50:54.000Z</time>
      </trkpt>
      <trkpt lat="48.50776" lon="2.64949">
        <ele>85</ele>
        <time>2026-05-12T14:51:16.000Z</time>
      </trkpt>
      <trkpt lat="48.50799" lon="2.64951">
        <ele>84</ele>
        <time>2026-05-12T14:51:36.000Z</time>
      </trkpt>
      <trkpt lat="48.50821" lon="2.64959">
        <ele>83</ele>
        <time>2026-05-12T14:51:58.000Z</time>
      </trkpt>
      <trkpt lat="48.50844" lon="2.64956">
        <ele>83</ele>
        <time>2026-05-12T14:52:19.000Z</time>
      </trkpt>
      <trkpt lat="48.50868" lon="2.64959">
        <ele>83</ele>
        <time>2026-05-12T14:52:39.000Z</time>
      </trkpt>
      <trkpt lat="48.5089" lon="2.64962">
        <ele>83</ele>
        <time>2026-05-12T14:53:00.000Z</time>
      </trkpt>
      <trkpt lat="48.50913" lon="2.64969">
        <ele>81</ele>
        <time>2026-05-12T14:53:17.000Z</time>
      </trkpt>
      <trkpt lat="48.50937" lon="2.64971">
        <ele>82</ele>
        <time>2026-05-12T14:53:41.000Z</time>
      </trkpt>
      <trkpt lat="48.5096" lon="2.64972">
        <ele>81</ele>
        <time>2026-05-12T14:54:01.000Z</time>
      </trkpt>
      <trkpt lat="48.50983" lon="2.64975">
        <ele>80</ele>
        <time>2026-05-12T14:54:21.000Z</time>
      </trkpt>
      <trkpt lat="48.51006" lon="2.64983">
        <ele>80</ele>
        <time>2026-05-12T14:54:43.000Z</time>
      </trkpt>
      <trkpt lat="48.51029" lon="2.64982">
        <ele>80</ele>
        <time>2026-05-12T14:55:03.000Z</time>
      </trkpt>
      <trkpt lat="48.51051" lon="2.64984">
        <ele>77</ele>
        <time>2026-05-12T14:55:24.000Z</time>
      </trkpt>
      <trkpt lat="48.51074" lon="2.6499">
        <ele>80</ele>
        <time>2026-05-12T14:55:43.000Z</time>
      </trkpt>
      <trkpt lat="48.51098" lon="2.64991">
        <ele>79</ele>
        <time>2026-05-12T14:56:03.000Z</time>
      </trkpt>
      <trkpt lat="48.51121" lon="2.64993">
        <ele>78</ele>
        <time>2026-05-12T14:56:28.000Z</time>
      </trkpt>
      <trkpt lat="48.51144" lon="2.64999">
        <ele>78</ele>
        <time>2026-05-12T14:56:47.000Z</time>
      </trkpt>
      <trkpt lat="48.51167" lon="2.65004">
        <ele>76</ele>
        <time>2026-05-12T14:57:08.000Z</time>
      </trkpt>
      <trkpt lat="48.5119" lon="2.65005">
        <ele>78</ele>
        <time>2026-05-12T14:57:28.000Z</time>
      </trkpt>
      <trkpt lat="48.51212" lon="2.65007">
        <ele>76</ele>
        <time>2026-05-12T14:57:49.000Z</time>
      </trkpt>
      <trkpt lat="48.51232" lon="2.64988">
        <ele>79</ele>
        <time>2026-05-12T14:58:09.000Z</time>
      </trkpt>
      <trkpt lat="48.51244" lon="2.64958">
        <ele>77</ele>
        <time>2026-05-12T14:58:29.000Z</time>
      </trkpt>
      <trkpt lat="48.51256" lon="2.64929">
        <ele>78</ele>
        <time>2026-05-12T14:58:48.000Z</time>
      </trkpt>
      <trkpt lat="48.51271" lon="2.64903">
        <ele>77</ele>
        <time>2026-05-12T14:59:05.000Z</time>
      </trkpt>
      <trkpt lat="48.51276" lon="2.6487">
        <ele>73</ele>
        <time>2026-05-12T14:59:27.000Z</time>
      </trkpt>
      <trkpt lat="48.51286" lon="2.64836">
        <ele>75</ele>
        <time>2026-05-12T14:59:48.000Z</time>
      </trkpt>
      <trkpt lat="48.51296" lon="2.64804">
        <ele>75</ele>
        <time>2026-05-12T15:00:08.000Z</time>
      </trkpt>
      <trkpt lat="48.51304" lon="2.64773">
        <ele>73</ele>
        <time>2026-05-12T15:00:27.000Z</time>
      </trkpt>
      <trkpt lat="48.51316" lon="2.64744">
        <ele>75</ele>
        <time>2026-05-12T15:00:47.000Z</time>
      </trkpt>
      <trkpt lat="48.51327" lon="2.64713">
        <ele>75</ele>
        <time>2026-05-12T15:01:08.000Z</time>
      </trkpt>
      <trkpt lat="48.51339" lon="2.64683">
        <ele>73</ele>
        <time>2026-05-12T15:01:29.000Z</time>
      </trkpt>
      <trkpt lat="48.51346" lon="2.64651">
        <ele>74</ele>
        <time>2026-05-12T15:01:49.000Z</time>
      </trkpt>
      <trkpt lat="48.51358" lon="2.64621">
        <ele>72</ele>
        <time>2026-05-12T15:02:07.000Z</time>
      </trkpt>
      <trkpt lat="48.51364" lon="2.64588">
        <ele>69</ele>
        <time>2026-05-12T15:02:29.000Z</time>
      </trkpt>
      <trkpt lat="48.51376" lon="2.64558">
        <ele>71</ele>
        <time>2026-05-12T15:02:49.000Z</time>
      </trkpt>
      <trkpt lat="48.51387" lon="2.64528">
        <ele>71</ele>
        <time>2026-05-12T15:03:10.000Z</time>
      </trkpt>
      <trkpt lat="48.51395" lon="2.64495">
        <ele>72</ele>
        <time>2026-05-12T15:03:29.000Z</time>
      </trkpt>
      <trkpt lat="48.51407" lon="2.64465">
        <ele>67</ele>
        <time>2026-05-12T15:03:49.000Z</time>
      </trkpt>
      <trkpt lat="48.51418" lon="2.64434">
        <ele>68</ele>
        <time>2026-05-12T15:04:13.000Z</time>
      </trkpt>
      <trkpt lat="48.51434" lon="2.64409">
        <ele>68</ele>
        <time>2026-05-12T15:04:36.000Z</time>
      </trkpt>
      <trkpt lat="48.51454" lon="2.64393">
        <ele>65</ele>
        <time>2026-05-12T15:05:28.000Z</time>
      </trkpt>
      <trkpt lat="48.51476" lon="2.64377">
        <ele>66</ele>
        <time>2026-05-12T15:06:01.000Z</time>
      </trkpt>
      <trkpt lat="48.51499" lon="2.64367">
        <ele>65</ele>
        <time>2026-05-12T15:08:10.000Z</time>
      </trkpt>
      <trkpt lat="48.515" lon="2.64333">
        <ele>64</ele>
        <time>2026-05-12T15:08:32.000Z</time>
      </trkpt>
      <trkpt lat="48.51501" lon="2.64298">
        <ele>64</ele>
        <time>2026-05-12T15:08:53.000Z</time>
      </trkpt>
      <trkpt lat="48.51505" lon="2.64264">
        <ele>65</ele>
        <time>2026-05-12T15:09:13.000Z</time>
      </trkpt>
      <trkpt lat="48.51505" lon="2.6423">
        <ele>66</ele>
        <time>2026-05-12T15:09:31.000Z</time>
      </trkpt>
      <trkpt lat="48.5151" lon="2.64195">
        <ele>66</ele>
        <time>2026-05-12T15:09:52.000Z</time>
      </trkpt>
      <trkpt lat="48.5151" lon="2.64158">
        <ele>65</ele>
        <time>2026-05-12T15:10:13.000Z</time>
      </trkpt>
      <trkpt lat="48.51514" lon="2.64125">
        <ele>65</ele>
        <time>2026-05-12T15:10:34.000Z</time>
      </trkpt>
      <trkpt lat="48.51523" lon="2.64094">
        <ele>66</ele>
        <time>2026-05-12T15:11:30.000Z</time>
      </trkpt>
      <trkpt lat="48.51517" lon="2.6406">
        <ele>66</ele>
        <time>2026-05-12T15:11:51.000Z</time>
      </trkpt>
      <trkpt lat="48.51515" lon="2.64024">
        <ele>66</ele>
        <time>2026-05-12T15:12:15.000Z</time>
      </trkpt>
      <trkpt lat="48.51518" lon="2.63991">
        <ele>66</ele>
        <time>2026-05-12T15:12:36.000Z</time>
      </trkpt>
      <trkpt lat="48.5152" lon="2.63957">
        <ele>66</ele>
        <time>2026-05-12T15:12:58.000Z</time>
      </trkpt>
      <trkpt lat="48.51527" lon="2.63921">
        <ele>65</ele>
        <time>2026-05-12T15:13:23.000Z</time>
      </trkpt>
      <trkpt lat="48.51529" lon="2.63887">
        <ele>65</ele>
        <time>2026-05-12T15:13:45.000Z</time>
      </trkpt>
      <trkpt lat="48.51532" lon="2.63851">
        <ele>64</ele>
        <time>2026-05-12T15:14:10.000Z</time>
      </trkpt>
      <trkpt lat="48.51533" lon="2.63817">
        <ele>64</ele>
        <time>2026-05-12T15:14:31.000Z</time>
      </trkpt>
      <trkpt lat="48.51536" lon="2.63782">
        <ele>64</ele>
        <time>2026-05-12T15:14:52.000Z</time>
      </trkpt>
      <trkpt lat="48.51534" lon="2.63748">
        <ele>64</ele>
        <time>2026-05-12T15:15:14.000Z</time>
      </trkpt>
      <trkpt lat="48.51527" lon="2.63712">
        <ele>64</ele>
        <time>2026-05-12T15:15:39.000Z</time>
      </trkpt>
      <trkpt lat="48.51543" lon="2.63686">
        <ele>65</ele>
        <time>2026-05-12T15:16:37.000Z</time>
      </trkpt>
      <trkpt lat="48.51542" lon="2.63652">
        <ele>64</ele>
        <time>2026-05-12T15:17:12.000Z</time>
      </trkpt>
      <trkpt lat="48.51557" lon="2.63627">
        <ele>63</ele>
        <time>2026-05-12T15:17:35.000Z</time>
      </trkpt>
      <trkpt lat="48.51578" lon="2.63609">
        <ele>62</ele>
        <time>2026-05-12T15:17:52.000Z</time>
      </trkpt>
      <trkpt lat="48.51589" lon="2.63579">
        <ele>62</ele>
        <time>2026-05-12T15:18:11.000Z</time>
      </trkpt>
      <trkpt lat="48.51585" lon="2.63544">
        <ele>64</ele>
        <time>2026-05-12T15:18:49.000Z</time>
      </trkpt>
      <trkpt lat="48.51594" lon="2.63512">
        <ele>63</ele>
        <time>2026-05-12T15:19:11.000Z</time>
      </trkpt>
      <trkpt lat="48.51617" lon="2.63514">
        <ele>60</ele>
        <time>2026-05-12T15:19:31.000Z</time>
      </trkpt>
      <trkpt lat="48.5164" lon="2.63523">
        <ele>59</ele>
        <time>2026-05-12T15:19:59.000Z</time>
      </trkpt>
      <trkpt lat="48.51663" lon="2.6352">
        <ele>60</ele>
        <time>2026-05-12T15:20:20.000Z</time>
      </trkpt>
      <trkpt lat="48.51678" lon="2.63495">
        <ele>60</ele>
        <time>2026-05-12T15:20:47.000Z</time>
      </trkpt>
      <trkpt lat="48.51683" lon="2.6346">
        <ele>61</ele>
        <time>2026-05-12T15:21:05.000Z</time>
      </trkpt>
      <trkpt lat="48.51681" lon="2.63426">
        <ele>60</ele>
        <time>2026-05-12T15:21:24.000Z</time>
      </trkpt>
      <trkpt lat="48.51686" lon="2.63393">
        <ele>60</ele>
        <time>2026-05-12T15:21:45.000Z</time>
      </trkpt>
      <trkpt lat="48.51692" lon="2.6336">
        <ele>61</ele>
        <time>2026-05-12T15:22:28.000Z</time>
      </trkpt>
      <trkpt lat="48.51669" lon="2.63359">
        <ele>62</ele>
        <time>2026-05-12T15:23:30.000Z</time>
      </trkpt>
    </trkseg>
  </trk>
</gpx>